Time;durP1;ratioP1;P1;durP2;ratioP2;P2;SDS_P1;SDS_P2;PMS_P1;PMS_P2;Temp;Humidity;BMP_temperature;BMP_pressure;BME280_temperature;BME280_humidity;BME280_pressure;Samples;Min_cycle;Max_cycle;Signal;HPM_P1;HPM_P2
2021/05/01 00:01:41;;;;;;;30.73;24.20;;;9.40;99.90;;;;;;5070786;28;20512;-74
2021/05/01 00:04:23;;;;;;;36.43;25.60;;;9.40;99.90;;;;;;5054799;28;20777;-74
2021/05/01 00:06:49;;;;;;;34.87;25.97;;;9.40;99.90;;;;;;5052395;28;20961;-74
2021/05/01 00:09:15;;;;;;;39.63;26.20;;;9.40;99.90;;;;;;5067606;28;20425;-74
2021/05/01 00:11:41;;;;;;;36.30;26.90;;;9.40;99.90;;;;;;5064925;28;20445;-74
2021/05/01 00:14:21;;;;;;;38.30;24.43;;;9.40;99.90;;;;;;5052664;28;21080;-74
2021/05/01 00:16:49;;;;;;;37.20;26.77;;;9.40;99.90;;;;;;5050740;28;20545;-74
2021/05/01 00:19:15;;;;;;;36.57;26.67;;;9.40;99.90;;;;;;5051161;28;20419;-74
2021/05/01 00:21:41;;;;;;;38.70;27.40;;;9.40;99.90;;;;;;5065716;28;20448;-75
2021/05/01 00:24:10;;;;;;;37.93;26.43;;;9.40;99.90;;;;;;5054877;28;20448;-74
2021/05/01 00:26:36;;;;;;;35.90;25.87;;;9.30;99.90;;;;;;5055525;28;20415;-75
2021/05/01 00:29:10;;;;;;;34.10;25.17;;;9.30;99.90;;;;;;5051145;28;20522;-74
2021/05/01 00:31:36;;;;;;;38.60;27.27;;;9.40;99.90;;;;;;5034473;28;20434;-74
2021/05/01 00:34:15;;;;;;;34.10;24.67;;;9.40;99.90;;;;;;5052266;28;20617;-74
2021/05/01 00:36:43;;;;;;;39.90;29.20;;;9.30;99.90;;;;;;5037778;28;21008;-74
2021/05/01 00:39:12;;;;;;;37.17;26.30;;;9.30;99.90;;;;;;5054500;28;20414;-74
2021/05/01 00:41:45;;;;;;;38.93;27.43;;;9.30;99.90;;;;;;5069283;28;20425;-74
2021/05/01 00:44:16;;;;;;;36.47;25.70;;;9.30;99.90;;;;;;5062947;28;20468;-74
2021/05/01 00:46:46;;;;;;;40.47;28.23;;;9.30;99.90;;;;;;5070665;28;20931;-74
2021/05/01 00:49:13;;;;;;;37.27;26.90;;;9.20;99.90;;;;;;5055678;28;20465;-74
2021/05/01 00:51:40;;;;;;;38.60;26.93;;;9.20;99.90;;;;;;5066163;28;20504;-74
2021/05/01 00:54:09;;;;;;;38.77;27.80;;;9.20;99.90;;;;;;5057703;28;20982;-74
2021/05/01 00:56:38;;;;;;;39.93;27.23;;;9.20;99.90;;;;;;5063847;28;20462;-74
2021/05/01 00:59:04;;;;;;;38.70;27.50;;;9.20;99.90;;;;;;5055720;28;20414;-74
2021/05/01 01:01:31;;;;;;;40.90;27.50;;;9.20;99.90;;;;;;5071977;28;20433;-74
2021/05/01 01:04:02;;;;;;;39.50;27.40;;;9.10;99.90;;;;;;5055849;28;21177;-74
2021/05/01 01:06:31;;;;;;;41.23;28.47;;;9.10;99.90;;;;;;5057761;28;20435;-74
2021/05/01 01:09:02;;;;;;;41.30;29.77;;;9.10;99.90;;;;;;5094486;28;20408;-74
2021/05/01 01:11:47;;;;;;;42.57;30.07;;;9.10;99.90;;;;;;5077897;28;20421;-74
2021/05/01 01:14:14;;;;;;;46.03;31.80;;;9.10;99.90;;;;;;5075293;28;20811;-74
2021/05/01 01:16:44;;;;;;;46.70;33.20;;;9.10;99.90;;;;;;5055327;28;20476;-74
2021/05/01 01:19:13;;;;;;;48.70;34.47;;;9.10;99.90;;;;;;5054125;28;20969;-75
2021/05/01 01:21:49;;;;;;;45.43;33.23;;;9.10;99.90;;;;;;5055092;28;20426;-74
2021/05/01 01:24:25;;;;;;;48.63;32.70;;;9.00;99.90;;;;;;5054991;28;20954;-74
2021/05/01 01:26:52;;;;;;;51.97;35.00;;;9.00;99.90;;;;;;5055102;28;20422;-74
2021/05/01 01:29:18;;;;;;;50.03;34.50;;;9.00;99.90;;;;;;5037549;28;20776;-74
2021/05/01 01:31:44;;;;;;;52.73;34.70;;;9.00;99.90;;;;;;5046588;28;20449;-75
2021/05/01 01:34:10;;;;;;;48.23;33.77;;;9.00;99.90;;;;;;5053894;28;20453;-74
2021/05/01 01:36:41;;;;;;;50.10;34.47;;;9.00;99.90;;;;;;5054934;28;20462;-74
2021/05/01 01:39:10;;;;;;;50.53;33.67;;;9.00;99.90;;;;;;5054732;28;20430;-74
2021/05/01 01:41:38;;;;;;;47.90;34.17;;;8.90;99.90;;;;;;5073412;28;20440;-74
2021/05/01 01:44:04;;;;;;;50.77;35.60;;;8.90;99.90;;;;;;5073464;28;20465;-74
2021/05/01 01:46:33;;;;;;;50.77;35.23;;;8.90;99.90;;;;;;5073873;28;20445;-74
2021/05/01 01:49:01;;;;;;;57.97;34.40;;;8.90;99.90;;;;;;5074659;28;20940;-74
2021/05/01 01:51:27;;;;;;;48.90;34.70;;;8.90;99.90;;;;;;5063532;28;20487;-74
2021/05/01 01:53:53;;;;;;;48.43;34.33;;;8.90;99.90;;;;;;5036811;28;20442;-74
2021/05/01 01:56:24;;;;;;;49.10;33.70;;;8.90;99.90;;;;;;5052977;28;20559;-74
2021/05/01 01:58:50;;;;;;;50.63;35.60;;;8.90;99.90;;;;;;5054281;28;20506;-74
2021/05/01 02:01:16;;;;;;;47.43;33.97;;;8.90;99.90;;;;;;5065284;28;20441;-74
2021/05/01 02:03:43;;;;;;;50.43;34.40;;;8.90;99.90;;;;;;5063908;28;20434;-74
2021/05/01 02:06:09;;;;;;;51.90;34.27;;;8.90;99.90;;;;;;5054476;28;20470;-74
2021/05/01 02:08:36;;;;;;;48.27;34.10;;;8.90;99.90;;;;;;5036884;28;20418;-74
2021/05/01 02:11:09;;;;;;;46.20;33.23;;;8.90;99.90;;;;;;5052833;28;20955;-74
2021/05/01 02:13:49;;;;;;;50.33;34.97;;;8.80;99.90;;;;;;5052715;28;20437;-74
2021/05/01 02:16:16;;;;;;;48.90;33.70;;;8.70;99.90;;;;;;5054139;28;20469;-74
2021/05/01 02:18:46;;;;;;;49.77;34.37;;;8.70;99.90;;;;;;5053983;28;20414;-74
2021/05/01 02:21:19;;;;;;;48.87;33.93;;;8.60;99.90;;;;;;5054054;28;20422;-74
2021/05/01 02:24:00;;;;;;;49.30;35.10;;;8.60;99.90;;;;;;5052483;28;20458;-74
2021/05/01 02:26:26;;;;;;;48.40;33.87;;;8.50;99.90;;;;;;5058178;28;20506;-74
2021/05/01 02:28:53;;;;;;;48.17;32.77;;;8.40;99.90;;;;;;5055941;28;20413;-74
2021/05/01 02:31:19;;;;;;;48.37;33.30;;;8.30;99.90;;;;;;5039122;28;20486;-75
2021/05/01 02:33:45;;;;;;;48.23;34.30;;;8.30;99.90;;;;;;5072673;28;20421;-74
2021/05/01 02:36:12;;;;;;;47.53;32.73;;;8.20;99.90;;;;;;5073484;28;20456;-75
2021/05/01 02:38:38;;;;;;;46.07;33.20;;;8.20;99.90;;;;;;5071840;28;20500;-74
2021/05/01 02:41:04;;;;;;;47.57;33.33;;;8.10;99.90;;;;;;5073925;28;20439;-74
2021/05/01 02:43:43;;;;;;;50.27;34.00;;;8.00;99.90;;;;;;5059097;28;20425;-74
2021/05/01 02:46:09;;;;;;;52.13;35.50;;;8.00;99.90;;;;;;5053679;28;20430;-74
2021/05/01 02:48:38;;;;;;;53.40;33.87;;;7.90;99.90;;;;;;5066334;28;20496;-74
2021/05/01 02:51:04;;;;;;;52.40;34.50;;;7.90;99.90;;;;;;5072352;28;20776;-74
2021/05/01 02:53:41;;;;;;;47.33;32.93;;;7.80;99.90;;;;;;5063736;28;20438;-74
2021/05/01 02:56:14;;;;;;;48.67;33.97;;;7.70;99.90;;;;;;5051775;28;20477;-74
2021/05/01 02:58:43;;;;;;;52.97;34.03;;;7.60;99.90;;;;;;5067062;28;20433;-75
2021/05/01 03:01:11;;;;;;;46.57;32.70;;;7.60;99.90;;;;;;5055888;28;20430;-77
2021/05/01 03:03:39;;;;;;;52.73;34.40;;;7.50;99.90;;;;;;5082495;28;20434;-74
2021/05/01 03:06:05;;;;;;;49.38;33.50;;;7.50;99.90;;;;;;5093234;28;20420;-74
2021/05/01 03:08:36;;;;;;;49.57;34.57;;;7.40;99.90;;;;;;5093377;28;20185;-74
2021/05/01 03:11:12;;;;;;;50.73;34.50;;;7.40;99.90;;;;;;5092660;28;20818;-74
2021/05/01 03:13:38;;;;;;;54.00;35.70;;;7.30;99.90;;;;;;5075071;28;20431;-74
2021/05/01 03:16:12;;;;;;;52.87;33.90;;;7.20;99.90;;;;;;5075326;28;20848;-75
2021/05/01 03:18:40;;;;;;;52.17;34.73;;;7.20;99.90;;;;;;5093185;28;20435;-74
2021/05/01 03:21:09;;;;;;;51.23;33.30;;;7.20;99.90;;;;;;5088055;28;20496;-74
2021/05/01 03:23:35;;;;;;;60.67;36.50;;;7.20;99.90;;;;;;5051713;28;20434;-74
2021/05/01 03:26:01;;;;;;;54.33;34.43;;;7.20;99.90;;;;;;5051506;28;20512;-74
2021/05/01 03:28:27;;;;;;;55.00;34.60;;;7.20;99.90;;;;;;5052810;28;20992;-74
2021/05/01 03:30:59;;;;;;;61.47;36.90;;;7.20;99.90;;;;;;5082585;28;20473;-74
2021/05/01 03:33:27;;;;;;;50.90;34.77;;;7.20;99.90;;;;;;5092778;28;20432;-74
2021/05/01 03:35:56;;;;;;;56.27;36.90;;;7.30;99.90;;;;;;5075036;28;20983;-74
2021/05/01 03:38:24;;;;;;;57.43;37.07;;;7.30;99.90;;;;;;5091690;28;20495;-74
2021/05/01 03:40:52;;;;;;;51.60;34.83;;;7.40;99.90;;;;;;5084565;28;20456;-74
2021/05/01 03:43:19;;;;;;;55.57;37.50;;;7.40;99.90;;;;;;5072852;28;20878;-74
2021/05/01 03:45:50;;;;;;;51.03;34.33;;;7.40;99.90;;;;;;5071628;28;20519;-74
2021/05/01 03:48:16;;;;;;;50.00;34.77;;;7.40;99.90;;;;;;5072042;28;20947;-74
2021/05/01 03:50:47;;;;;;;54.07;35.20;;;7.30;99.90;;;;;;5061774;28;20502;-74
2021/05/01 03:53:13;;;;;;;57.37;35.10;;;7.30;99.90;;;;;;5071774;28;20897;-74
2021/05/01 03:55:39;;;;;;;48.70;33.57;;;7.30;99.90;;;;;;5070977;28;20484;-74
2021/05/01 03:58:12;;;;;;;52.10;35.90;;;7.20;99.90;;;;;;5071909;28;20428;-74
2021/05/01 04:00:41;;;;;;;55.43;35.57;;;7.20;99.90;;;;;;5071708;28;20978;-73
2021/05/01 04:03:12;;;;;;;46.77;33.93;;;7.10;99.90;;;;;;5051025;28;20452;-74
2021/05/01 04:05:45;;;;;;;49.87;33.43;;;7.10;99.90;;;;;;5056132;28;20457;-74
2021/05/01 04:08:11;;;;;;;47.17;32.60;;;7.10;99.90;;;;;;5050772;28;20445;-75
2021/05/01 04:10:40;;;;;;;53.73;35.43;;;7.00;99.90;;;;;;5051355;28;20424;-74
2021/05/01 04:13:16;;;;;;;47.00;33.10;;;7.00;99.90;;;;;;5052302;28;20426;-74
2021/05/01 04:15:46;;;;;;;50.40;33.60;;;7.00;99.90;;;;;;5051013;28;20526;-74
2021/05/01 04:18:13;;;;;;;54.60;35.07;;;7.00;99.90;;;;;;5053626;28;20417;-74
2021/05/01 04:20:44;;;;;;;52.77;33.80;;;6.90;99.90;;;;;;5063753;28;20875;-73
2021/05/01 04:23:14;;;;;;;51.87;31.93;;;6.90;99.90;;;;;;5071970;28;20785;-74
2021/05/01 04:25:40;;;;;;;45.13;32.13;;;6.80;99.90;;;;;;5055010;28;20536;-74
2021/05/01 04:28:10;;;;;;;53.77;32.90;;;6.80;99.90;;;;;;5068367;28;20420;-74
2021/05/01 04:30:36;;;;;;;51.47;33.00;;;6.80;99.90;;;;;;5075125;28;20917;-74
2021/05/01 04:33:03;;;;;;;45.83;31.00;;;6.70;99.90;;;;;;5058505;28;20493;-74
2021/05/01 04:35:32;;;;;;;44.77;32.20;;;6.70;99.90;;;;;;5070494;28;20481;-75
2021/05/01 04:38:01;;;;;;;49.60;33.30;;;6.60;99.90;;;;;;5058167;28;20450;-74
2021/05/01 04:40:27;;;;;;;48.00;32.07;;;6.60;99.90;;;;;;5058326;28;20513;-75
2021/05/01 04:42:59;;;;;;;51.43;32.83;;;6.60;99.90;;;;;;5058476;28;20834;-76
2021/05/01 04:45:25;;;;;;;44.70;31.80;;;6.60;99.90;;;;;;5062488;28;20455;-75
2021/05/01 04:47:55;;;;;;;47.03;30.95;;;6.60;99.90;;;;;;5054340;28;20188;-76
2021/05/01 04:50:21;;;;;;;52.00;32.53;;;6.60;99.90;;;;;;5054741;28;20532;-74
2021/05/01 04:52:49;;;;;;;48.73;31.23;;;6.60;99.90;;;;;;5054385;28;20496;-74
2021/05/01 04:55:16;;;;;;;43.90;30.40;;;6.60;99.90;;;;;;5044821;28;20590;-75
2021/05/01 04:57:45;;;;;;;43.33;30.17;;;6.60;99.90;;;;;;5054390;28;20440;-75
2021/05/01 05:00:15;;;;;;;43.37;28.60;;;6.70;99.90;;;;;;5053222;28;20428;-75
2021/05/01 05:02:41;;;;;;;42.87;29.53;;;6.60;99.90;;;;;;5054184;28;20410;-76
2021/05/01 05:05:11;;;;;;;41.63;29.33;;;6.60;99.90;;;;;;5055891;28;20466;-74
2021/05/01 05:07:37;;;;;;;42.83;29.23;;;6.60;99.90;;;;;;5072930;28;20452;-74
2021/05/01 05:10:07;;;;;;;44.00;30.13;;;6.60;99.90;;;;;;5062664;28;20918;-74
2021/05/01 05:12:36;;;;;;;44.50;30.40;;;6.60;99.90;;;;;;5052458;28;20490;-74
2021/05/01 05:15:06;;;;;;;47.23;31.80;;;6.60;99.90;;;;;;5071437;28;20468;-74
2021/05/01 05:17:32;;;;;;;46.73;31.10;;;6.70;99.90;;;;;;5072514;28;20466;-75
2021/05/01 05:19:59;;;;;;;46.87;33.53;;;6.70;99.90;;;;;;5053584;28;20433;-74
2021/05/01 05:22:25;;;;;;;57.60;35.60;;;6.70;99.90;;;;;;5071593;28;20813;-74
2021/05/01 05:24:51;;;;;;;54.50;36.10;;;6.80;99.90;;;;;;5071846;28;20437;-74
2021/05/01 05:27:17;;;;;;;54.20;35.80;;;6.80;99.90;;;;;;5071610;28;20482;-75
2021/05/01 05:29:50;;;;;;;51.53;34.57;;;6.90;99.90;;;;;;5055103;28;20432;-75
2021/05/01 05:32:18;;;;;;;50.20;33.37;;;7.00;99.90;;;;;;5070990;28;20435;-75
2021/05/01 05:34:44;;;;;;;57.00;36.87;;;7.00;99.90;;;;;;5052260;28;20448;-74
2021/05/01 05:37:11;;;;;;;50.70;33.83;;;7.10;99.90;;;;;;5053947;28;20877;-75
2021/05/01 05:39:40;;;;;;;49.10;32.80;;;7.10;99.90;;;;;;5072744;28;20789;-75
2021/05/01 05:42:08;;;;;;;50.83;34.43;;;7.20;99.90;;;;;;5061785;28;20929;-75
2021/05/01 05:44:35;;;;;;;54.70;36.37;;;7.20;99.90;;;;;;5051616;28;20519;-75
2021/05/01 05:47:03;;;;;;;51.00;32.80;;;7.30;99.90;;;;;;5071257;28;20443;-75
2021/05/01 05:49:31;;;;;;;44.80;30.87;;;7.40;99.90;;;;;;5073480;28;20428;-75
2021/05/01 05:51:57;;;;;;;50.50;32.57;;;7.40;99.90;;;;;;5071013;28;20513;-75
2021/05/01 05:54:26;;;;;;;42.63;29.30;;;7.50;99.90;;;;;;5073459;28;20502;-75
2021/05/01 05:56:52;;;;;;;46.57;31.33;;;7.50;99.90;;;;;;5071300;28;20563;-76
2021/05/01 05:59:19;;;;;;;45.37;28.97;;;7.60;99.90;;;;;;5055098;28;20421;-75
2021/05/01 06:01:47;;;;;;;45.33;30.50;;;7.70;99.90;;;;;;5035661;28;20422;-75
2021/05/01 06:04:22;;;;;;;42.80;30.03;;;7.70;99.90;;;;;;5056002;28;20995;-74
2021/05/01 06:07:13;;;;;;;43.57;29.10;;;7.70;99.90;;;;;;5072001;28;21287;-74
2021/05/01 06:09:42;;;;;;;47.53;30.17;;;7.70;99.90;;;;;;5051980;28;20471;-75
2021/05/01 06:12:09;;;;;;;44.83;29.10;;;7.80;99.90;;;;;;5051730;28;20436;-75
2021/05/01 06:14:42;;;;;;;37.03;26.20;;;7.90;99.90;;;;;;5053010;28;20469;-74
2021/05/01 06:17:12;;;;;;;43.23;29.00;;;7.90;99.90;;;;;;5053020;28;20596;-75
2021/05/01 06:19:39;;;;;;;44.23;29.13;;;7.80;99.90;;;;;;5053088;28;20884;-75
2021/05/01 06:22:07;;;;;;;37.70;25.90;;;7.90;99.90;;;;;;5056072;28;20498;-75
2021/05/01 06:24:41;;;;;;;45.80;27.40;;;7.90;99.90;;;;;;5057898;28;20986;-75
2021/05/01 06:27:07;;;;;;;48.80;29.20;;;7.90;99.90;;;;;;5080702;28;20444;-74
2021/05/01 06:29:37;;;;;;;43.47;27.63;;;8.00;99.90;;;;;;5072672;28;20478;-75
2021/05/01 06:32:07;;;;;;;38.33;26.70;;;8.10;99.90;;;;;;5069704;28;20529;-75
2021/05/01 06:34:36;;;;;;;36.70;25.00;;;8.20;99.90;;;;;;5071414;28;20475;-75
2021/05/01 06:37:02;;;;;;;35.60;23.80;;;8.40;99.90;;;;;;5062878;28;20576;-75
2021/05/01 06:39:33;;;;;;;37.63;25.30;;;8.50;99.90;;;;;;5054297;28;20409;-75
2021/05/01 06:42:01;;;;;;;37.87;25.20;;;8.50;99.90;;;;;;5060294;28;20449;-75
2021/05/01 06:44:38;;;;;;;31.93;24.40;;;8.50;99.90;;;;;;5054956;28;21020;-77
2021/05/01 06:47:05;;;;;;;34.13;24.50;;;8.60;99.90;;;;;;5070529;28;20422;-73
2021/05/01 06:49:47;;;;;;;32.37;22.50;;;8.60;99.90;;;;;;5072133;28;20486;-75
2021/05/01 06:52:15;;;;;;;37.90;25.50;;;8.70;99.90;;;;;;5034562;28;20423;-74
2021/05/01 06:54:44;;;;;;;30.90;23.27;;;8.80;99.90;;;;;;5050798;28;21133;-77
2021/05/01 06:57:10;;;;;;;34.80;22.57;;;8.80;99.90;;;;;;5034210;28;20520;-74
2021/05/01 06:59:37;;;;;;;29.03;21.87;;;8.80;99.90;;;;;;5051325;28;20464;-75
2021/05/01 07:02:03;;;;;;;32.90;22.23;;;8.90;99.90;;;;;;5067206;28;20519;-75
2021/05/01 07:04:30;;;;;;;33.90;21.30;;;8.90;99.90;;;;;;5036837;28;20478;-72
2021/05/01 07:06:56;;;;;;;30.90;23.00;;;9.10;99.90;;;;;;5050399;28;20480;-70
2021/05/01 07:09:31;;;;;;;28.23;19.43;;;9.20;99.90;;;;;;5051536;28;20493;-72
2021/05/01 07:12:12;;;;;;;22.40;16.70;;;9.30;99.90;;;;;;5171655;27;20276;-74
2021/05/01 07:14:53;;;;;;;22.07;16.00;;;9.40;99.90;;;;;;5069326;28;20577;-74
2021/05/01 07:17:19;;;;;;;21.60;16.47;;;9.40;99.90;;;;;;5047823;28;20430;-73
2021/05/01 07:19:55;;;;;;;22.23;17.87;;;9.50;99.90;;;;;;5049004;28;20481;-75
2021/05/01 07:22:29;;;;;;;23.47;17.83;;;9.50;99.90;;;;;;5061379;28;20805;-73
2021/05/01 07:25:00;;;;;;;23.57;17.63;;;9.50;99.90;;;;;;5049642;28;20981;-73
2021/05/01 07:27:49;;;;;;;28.00;19.53;;;9.60;99.90;;;;;;5062484;28;20425;-74
2021/05/01 07:30:19;;;;;;;26.57;19.97;;;9.70;99.90;;;;;;5059692;28;20850;-74
2021/05/01 07:33:09;;;;;;;25.17;18.23;;;9.80;99.90;;;;;;5067006;28;20834;-73
2021/05/01 07:35:37;;;;;;;24.10;18.37;;;9.80;99.90;;;;;;5066324;28;20437;-73
2021/05/01 07:38:13;;;;;;;31.53;20.03;;;9.70;99.90;;;;;;5056601;28;20437;-73
2021/05/01 07:40:40;;;;;;;21.00;18.00;;;9.60;99.90;;;;;;5065926;28;20910;-73
2021/05/01 07:43:08;;;;;;;25.70;18.97;;;9.90;99.90;;;;;;5066953;28;20437;-73
2021/05/01 07:45:35;;;;;;;24.70;17.93;;;10.20;99.90;;;;;;5044430;28;20460;-73
2021/05/01 07:48:03;;;;;;;27.87;19.17;;;10.30;99.90;;;;;;5060276;28;20483;-74
2021/05/01 07:50:31;;;;;;;21.93;18.40;;;10.40;99.90;;;;;;5053914;28;20466;-74
2021/05/01 07:52:57;;;;;;;25.30;20.97;;;10.20;99.90;;;;;;5054966;28;20541;-74
2021/05/01 07:55:24;;;;;;;24.83;19.10;;;10.20;99.90;;;;;;5066925;28;20485;-73
2021/05/01 07:57:50;;;;;;;22.70;19.30;;;10.20;99.90;;;;;;5059605;28;20426;-73
2021/05/01 08:00:20;;;;;;;20.20;17.20;;;10.20;99.90;;;;;;5047562;28;20923;-73
2021/05/01 08:02:47;;;;;;;26.10;20.47;;;10.30;99.90;;;;;;5063383;28;20958;-73
2021/05/01 08:05:15;;;;;;;21.90;18.87;;;10.30;99.90;;;;;;5066131;28;20565;-73
2021/05/01 08:07:41;;;;;;;24.10;17.30;;;10.40;99.90;;;;;;5049795;28;20844;-73
2021/05/01 08:10:08;;;;;;;21.00;15.87;;;10.50;99.90;;;;;;5047332;28;20447;-73
2021/05/01 08:12:49;;;;;;;22.37;15.00;;;10.50;99.80;;;;;;5064165;28;20840;-73
2021/05/01 08:15:15;;;;;;;18.20;14.27;;;10.40;99.80;;;;;;5066335;28;20448;-73
2021/05/01 08:17:42;;;;;;;24.27;17.37;;;10.40;99.40;;;;;;5049379;28;20438;-73
2021/05/01 08:20:13;;;;;;;17.77;14.60;;;10.50;99.00;;;;;;5061452;28;20426;-73
2021/05/01 08:22:41;;;;;;;18.80;16.80;;;10.70;99.90;;;;;;5047791;28;20442;-73
2021/05/01 08:25:09;;;;;;;20.33;16.03;;;10.80;99.90;;;;;;5054014;28;20564;-74
2021/05/01 08:27:39;;;;;;;19.90;16.17;;;10.90;98.80;;;;;;5041984;28;20959;-73
2021/05/01 08:30:08;;;;;;;23.20;19.00;;;10.90;96.90;;;;;;5032476;28;20412;-74
2021/05/01 08:32:35;;;;;;;20.90;18.50;;;10.90;96.70;;;;;;5045840;28;20509;-74
2021/05/01 08:35:03;;;;;;;23.60;19.40;;;10.90;98.00;;;;;;5033791;28;20456;-73
2021/05/01 08:37:29;;;;;;;25.20;21.37;;;11.00;98.00;;;;;;5046094;28;20407;-74
2021/05/01 08:39:55;;;;;;;26.20;20.40;;;11.10;97.50;;;;;;5015921;23;20501;-72
2021/05/01 08:42:21;;;;;;;24.00;19.10;;;11.30;96.30;;;;;;5028972;28;20582;-76
2021/05/01 08:44:48;;;;;;;24.70;21.27;;;11.30;96.90;;;;;;4991728;28;20453;-73
2021/05/01 08:47:17;;;;;;;26.47;21.53;;;11.40;96.80;;;;;;4996381;28;20471;-73
2021/05/01 08:49:45;;;;;;;23.07;20.60;;;11.50;97.40;;;;;;5008808;28;20449;-75
2021/05/01 08:52:14;;;;;;;29.17;21.50;;;11.70;98.00;;;;;;5031442;28;20415;-76
2021/05/01 08:54:46;;;;;;;21.87;18.40;;;11.90;97.20;;;;;;5000722;28;20971;-76
2021/05/01 08:57:32;;;;;;;21.40;17.63;;;12.10;96.40;;;;;;5001564;28;20431;-75
2021/05/01 09:00:00;;;;;;;20.83;16.70;;;12.30;95.10;;;;;;5011126;28;20941;-77
2021/05/01 09:02:28;;;;;;;20.67;16.97;;;12.30;92.70;;;;;;5017167;28;20431;-78
2021/05/01 09:04:57;;;;;;;19.60;16.43;;;12.20;92.90;;;;;;5012830;28;20444;-76
2021/05/01 09:07:28;;;;;;;18.60;15.40;;;12.30;91.40;;;;;;4995572;28;20449;-77
2021/05/01 09:09:59;;;;;;;19.37;17.00;;;12.40;90.60;;;;;;5005553;28;20599;-76
2021/05/01 09:12:46;;;;;;;18.33;16.43;;;12.40;90.00;;;;;;5011732;28;20799;-76
2021/05/01 09:15:28;;;;;;;18.07;16.17;;;12.40;89.40;;;;;;5015288;28;20985;-75
2021/05/01 09:18:05;;;;;;;21.10;16.80;;;12.50;89.90;;;;;;5013200;28;20478;-75
2021/05/01 09:20:32;;;;;;;18.60;16.70;;;12.80;91.30;;;;;;5013022;28;20487;-75
2021/05/01 09:23:13;;;;;;;18.67;16.67;;;12.90;90.60;;;;;;4979700;28;20425;-75
2021/05/01 09:25:53;;;;;;;20.97;17.10;;;13.10;86.00;;;;;;4994364;28;20463;-75
2021/05/01 09:28:21;;;;;;;18.27;16.20;;;13.20;86.90;;;;;;4996036;28;21305;-74
2021/05/01 09:31:09;;;;;;;19.50;17.50;;;13.40;87.50;;;;;;5005817;28;20982;-72
2021/05/01 09:33:42;;;;;;;18.57;16.43;;;13.50;83.90;;;;;;5011688;28;20465;-79
2021/05/01 09:36:20;;;;;;;17.37;15.57;;;13.40;83.30;;;;;;5012818;28;20439;-71
2021/05/01 09:38:50;;;;;;;16.53;14.83;;;13.50;84.50;;;;;;5001292;28;20525;-71
2021/05/01 09:41:25;;;;;;;18.83;16.03;;;13.70;78.50;;;;;;4987930;28;20476;-70
2021/05/01 09:44:06;;;;;;;18.97;16.33;;;13.60;78.80;;;;;;4973355;28;21270;-73
2021/05/01 09:46:42;;;;;;;16.83;14.90;;;13.50;81.20;;;;;;4993086;28;20589;-72
2021/05/01 09:49:11;;;;;;;16.40;13.57;;;13.60;82.90;;;;;;4992404;28;20920;-74
2021/05/01 09:51:53;;;;;;;19.90;15.03;;;13.80;79.70;;;;;;4992798;28;20428;-73
2021/05/01 09:54:40;;;;;;;15.00;13.10;;;13.80;75.70;;;;;;4991754;28;20476;-73
2021/05/01 09:57:18;;;;;;;17.37;13.37;;;13.50;77.30;;;;;;5006565;28;20515;-75
2021/05/01 09:59:50;;;;;;;16.17;14.60;;;13.20;76.70;;;;;;5012724;28;20793;-74
2021/05/01 10:02:35;;;;;;;18.03;14.43;;;13.00;78.00;;;;;;4997571;28;20447;-75
2021/05/01 10:05:10;;;;;;;16.23;14.53;;;13.00;79.80;;;;;;4994699;28;20446;-75
2021/05/01 10:07:41;;;;;;;15.97;13.80;;;13.20;80.50;;;;;;5028632;28;20426;-75
2021/05/01 10:10:09;;;;;;;16.83;15.07;;;13.60;76.80;;;;;;4998524;28;20451;-74
2021/05/01 10:12:41;;;;;;;17.93;14.80;;;13.90;72.80;;;;;;5007269;28;20941;-77
2021/05/01 10:15:15;;;;;;;15.00;13.50;;;14.00;72.30;;;;;;4986064;28;20454;-74
2021/05/01 10:17:45;;;;;;;15.00;13.07;;;14.20;72.20;;;;;;4995620;28;20465;-75
2021/05/01 10:20:12;;;;;;;15.30;13.30;;;14.30;68.30;;;;;;4993482;28;20428;-75
2021/05/01 10:22:47;;;;;;;14.50;12.40;;;14.40;68.60;;;;;;5009211;28;20450;-75
2021/05/01 10:25:17;;;;;;;14.23;12.10;;;14.70;71.30;;;;;;5007720;28;20456;-75
2021/05/01 10:28:05;;;;;;;14.07;12.67;;;15.10;74.60;;;;;;5009199;28;21227;-74
2021/05/01 10:30:39;;;;;;;15.80;12.83;;;15.40;70.90;;;;;;5010240;28;20435;-75
2021/05/01 10:33:23;;;;;;;12.53;11.37;;;15.90;71.10;;;;;;4992753;28;20484;-75
2021/05/01 10:35:52;;;;;;;13.00;11.40;;;16.10;65.20;;;;;;5009151;28;20456;-75
2021/05/01 10:38:22;;;;;;;17.60;12.67;;;16.00;63.70;;;;;;5008927;28;20471;-74
2021/05/01 10:40:54;;;;;;;13.70;12.40;;;16.00;62.40;;;;;;5002971;28;20458;-74
2021/05/01 10:43:31;;;;;;;12.77;11.60;;;16.00;62.40;;;;;;4988602;28;20426;-75
2021/05/01 10:46:05;;;;;;;11.00;10.00;;;15.80;59.20;;;;;;4990663;28;20419;-74
2021/05/01 10:48:46;;;;;;;9.20;8.33;;;15.60;58.10;;;;;;4990228;28;20478;-75
2021/05/01 10:51:23;;;;;;;11.70;10.50;;;15.30;57.70;;;;;;4989670;28;20833;-75
2021/05/01 10:54:17;;;;;;;11.00;9.87;;;15.40;58.30;;;;;;4990174;28;20468;-75
2021/05/01 10:56:45;;;;;;;10.40;9.40;;;15.60;56.70;;;;;;4973188;28;20467;-75
2021/05/01 10:59:32;;;;;;;11.67;10.60;;;15.60;57.40;;;;;;5021495;28;20472;-75
2021/05/01 11:02:01;;;;;;;10.60;9.50;;;16.00;56.70;;;;;;4989547;28;20403;-75
2021/05/01 11:04:29;;;;;;;11.67;10.57;;;16.20;56.70;;;;;;5005523;28;20958;-74
2021/05/01 11:07:11;;;;;;;11.43;10.33;;;16.50;53.70;;;;;;5005402;28;20449;-74
2021/05/01 11:09:45;;;;;;;10.83;9.73;;;16.70;56.20;;;;;;4990377;28;20418;-75
2021/05/01 11:12:17;;;;;;;10.33;9.43;;;17.10;56.10;;;;;;4990340;28;20425;-75
2021/05/01 11:14:50;;;;;;;11.80;10.60;;;17.10;55.30;;;;;;4989990;28;20505;-75
2021/05/01 11:17:32;;;;;;;11.70;10.60;;;17.20;53.20;;;;;;4990970;28;20432;-74
2021/05/01 11:20:04;;;;;;;10.67;9.67;;;16.80;53.50;;;;;;4989311;28;20429;-74
2021/05/01 11:22:33;;;;;;;8.60;7.90;;;16.50;53.50;;;;;;4990658;28;20919;-75
2021/05/01 11:25:04;;;;;;;10.10;9.20;;;16.70;53.40;;;;;;5005082;28;20444;-75
2021/05/01 11:27:30;;;;;;;10.53;9.53;;;17.00;52.10;;;;;;4994834;28;20433;-75
2021/05/01 11:29:57;;;;;;;9.77;8.90;;;17.20;49.50;;;;;;5008559;28;20424;-75
2021/05/01 11:32:24;;;;;;;9.17;8.47;;;17.40;48.50;;;;;;5010023;28;20432;-75
2021/05/01 11:35:07;;;;;;;8.83;8.00;;;17.50;48.10;;;;;;5006289;28;20465;-76
2021/05/01 11:37:39;;;;;;;10.50;9.47;;;17.50;49.40;;;;;;5003414;28;20444;-73
2021/05/01 11:40:06;;;;;;;9.27;8.43;;;17.40;48.30;;;;;;5005451;28;20472;-73
2021/05/01 11:42:34;;;;;;;11.07;8.73;;;17.40;48.80;;;;;;5005910;28;20421;-73
2021/05/01 11:45:00;;;;;;;8.93;8.13;;;17.40;50.30;;;;;;4986458;28;20534;-74
2021/05/01 11:47:28;;;;;;;8.83;7.93;;;17.50;47.40;;;;;;4989712;28;20780;-75
2021/05/01 11:49:57;;;;;;;9.87;8.97;;;17.40;46.30;;;;;;4990509;28;20942;-73
2021/05/01 11:52:54;;;;;;;8.57;7.73;;;17.60;45.20;;;;;;5010572;28;20816;-72
2021/05/01 11:55:51;;;;;;;9.10;8.17;;;17.70;46.20;;;;;;5002316;28;20485;-74
2021/05/01 11:58:37;;;;;;;8.23;7.57;;;17.20;46.90;;;;;;4974737;28;20469;-81
2021/05/01 12:01:14;;;;;;;9.50;8.80;;;16.50;48.20;;;;;;4998457;28;20429;-74
2021/05/01 12:03:42;;;;;;;9.43;8.63;;;16.30;49.60;;;;;;5015569;28;21129;-74
2021/05/01 12:06:18;;;;;;;9.80;8.97;;;16.00;48.20;;;;;;5002817;28;20889;-76
2021/05/01 12:08:45;;;;;;;9.83;8.83;;;15.60;51.00;;;;;;5015763;28;20451;-74
2021/05/01 12:11:12;;;;;;;10.20;9.33;;;15.70;50.60;;;;;;4999905;28;20459;-72
2021/05/01 12:13:41;;;;;;;11.77;10.67;;;15.70;50.40;;;;;;5001520;28;20928;-72
2021/05/01 12:16:21;;;;;;;10.30;9.40;;;15.60;49.80;;;;;;5011033;28;20422;-74
2021/05/01 12:18:51;;;;;;;10.40;9.33;;;16.00;51.60;;;;;;5006816;28;20438;-74
2021/05/01 12:21:24;;;;;;;9.47;8.67;;;16.90;52.80;;;;;;4998458;28;20817;-74
2021/05/01 12:23:58;;;;;;;8.60;7.90;;;17.40;46.10;;;;;;5002903;28;20968;-74
2021/05/01 12:26:32;;;;;;;9.03;8.37;;;18.10;46.70;;;;;;5012720;28;20799;-72
2021/05/01 12:29:17;;;;;;;9.00;8.30;;;18.60;46.60;;;;;;5004070;28;20939;-76
2021/05/01 12:31:52;;;;;;;9.60;8.20;;;18.70;43.70;;;;;;4981893;28;20434;-74
2021/05/01 12:34:22;;;;;;;11.10;10.03;;;18.70;45.40;;;;;;5004387;28;20497;-73
2021/05/01 12:36:51;;;;;;;10.63;9.57;;;18.30;45.40;;;;;;4999692;28;20471;-72
2021/05/01 12:39:20;;;;;;;9.87;8.87;;;18.00;46.30;;;;;;5006338;28;20504;-71
2021/05/01 12:41:50;;;;;;;10.10;9.10;;;17.50;46.60;;;;;;4995165;28;20929;-71
2021/05/01 12:44:39;;;;;;;10.40;9.57;;;17.10;47.10;;;;;;4994306;28;20462;-72
2021/05/01 12:47:08;;;;;;;10.93;9.83;;;16.90;47.70;;;;;;4995677;28;20435;-74
2021/05/01 12:49:35;;;;;;;9.93;9.07;;;16.60;48.00;;;;;;4994867;28;20498;-74
2021/05/01 12:52:19;;;;;;;10.30;9.30;;;16.50;49.10;;;;;;4996428;28;20454;-75
2021/05/01 12:54:46;;;;;;;10.43;9.53;;;16.20;48.60;;;;;;5013823;28;20468;-75